Time;durP1;ratioP1;P1;durP2;ratioP2;P2;SDS_P1;SDS_P2;PMS_P1;PMS_P2;Temp;Humidity;BMP_temperature;BMP_pressure;BME280_temperature;BME280_humidity;BME280_pressure;Samples;Min_cycle;Max_cycle;Signal;HPM_P1;HPM_P2
2023/01/18 00:00:11;;;;;;;7.00;3.67;;;;;;;;;;10279659;28;20050;-83
2023/01/18 00:05:17;;;;;;;4.95;3.15;;;;;;;;;;10289125;28;20048;-87
2023/01/18 00:10:21;;;;;;;8.48;3.40;;;;;;;;;;10292237;28;20062;-85
2023/01/18 00:15:25;;;;;;;6.97;3.67;;;;;;;;;;10292103;28;20049;-85
2023/01/18 00:20:30;;;;;;;7.88;3.47;;;;;;;;;;10294388;28;20038;-88
2023/01/18 00:25:34;;;;;;;6.43;3.03;;;;;;;;;;10290756;28;20050;-85
2023/01/18 00:30:37;;;;;;;5.63;2.58;;;;;;;;;;10280880;28;20038;-85
2023/01/18 00:35:41;;;;;;;4.38;2.80;;;;;;;;;;10288027;28;20138;-82
2023/01/18 00:40:45;;;;;;;4.90;2.83;;;;;;;;;;10285228;28;20065;-87
2023/01/18 00:45:49;;;;;;;3.70;2.10;;;;;;;;;;10304763;28;20052;-83
2023/01/18 00:50:54;;;;;;;4.43;2.53;;;;;;;;;;10282936;28;20518;-83
2023/01/18 00:55:57;;;;;;;3.75;2.38;;;;;;;;;;10281005;28;20054;-83
2023/01/18 01:01:01;;;;;;;5.03;3.00;;;;;;;;;;10297330;28;20058;-81
2023/01/18 01:11:27;;;;;;;5.03;2.50;;;;;;;;;;10296426;28;20057;-83
2023/01/18 01:27:13;;;;;;;5.60;3.60;;;;;;;;;;10284863;28;20057;-83
2023/01/18 01:32:17;;;;;;;6.55;3.58;;;;;;;;;;10282968;28;20468;-83
2023/01/18 01:37:25;;;;;;;6.55;3.78;;;;;;;;;;10301925;28;20047;-83
2023/01/18 01:42:29;;;;;;;4.63;3.20;;;;;;;;;;10284132;28;20048;-84
2023/01/18 01:47:37;;;;;;;5.18;2.95;;;;;;;;;;10284371;28;20104;-82
2023/01/18 01:52:44;;;;;;;5.20;3.00;;;;;;;;;;10284595;28;20042;-83
2023/01/18 01:57:51;;;;;;;5.18;2.75;;;;;;;;;;10287608;28;20042;-85
2023/01/18 02:02:57;;;;;;;4.55;2.88;;;;;;;;;;10307661;28;20537;-84
2023/01/18 02:08:03;;;;;;;;;;;;;;;;;;10285862;28;20137;-84
2023/01/18 02:13:07;;;;;;;3.65;2.25;;;;;;;;;;10283136;28;19936;-83
2023/01/18 02:18:21;;;;;;;3.92;2.40;;;;;;;;;;10285817;28;20050;-84
2023/01/18 02:23:52;;;;;;;4.57;2.63;;;;;;;;;;10293182;28;20046;-82
2023/01/18 02:29:00;;;;;;;4.13;2.30;;;;;;;;;;10310965;28;20065;-82
2023/01/18 02:34:08;;;;;;;4.00;2.28;;;;;;;;;;10296581;28;20042;-84
2023/01/18 02:39:22;;;;;;;3.53;2.63;;;;;;;;;;10297139;28;20614;-84
2023/01/18 02:49:55;;;;;;;5.15;2.63;;;;;;;;;;10295907;28;20042;-86
2023/01/18 02:54:58;;;;;;;6.07;3.47;;;;;;;;;;10317076;28;20046;-86
2023/01/18 03:00:07;;;;;;;6.88;3.22;;;;;;;;;;10308674;28;20109;-87
2023/01/18 03:05:12;;;;;;;5.30;3.50;;;;;;;;;;10319534;28;20046;-87
2023/01/18 03:10:17;;;;;;;5.57;3.13;;;;;;;;;;10318720;28;20053;-87
2023/01/18 03:15:28;;;;;;;4.05;2.83;;;;;;;;;;10323196;28;20560;-82
2023/01/18 03:20:37;;;;;;;5.28;3.53;;;;;;;;;;10323480;28;20582;-83
2023/01/18 03:25:44;;;;;;;6.63;3.60;;;;;;;;;;10324646;28;20061;-83
2023/01/18 03:36:16;;;;;;;5.32;3.17;;;;;;;;;;10306680;28;20619;-84
2023/01/18 03:41:21;;;;;;;6.55;3.53;;;;;;;;;;10294679;28;20061;-83
2023/01/18 03:46:29;;;;;;;5.90;3.70;;;;;;;;;;10287454;28;20052;-81
2023/01/18 03:51:46;;;;;;;5.65;3.80;;;;;;;;;;10277352;28;20038;-82
2023/01/18 03:56:53;;;;;;;5.80;3.35;;;;;;;;;;10277372;28;20064;-83
2023/01/18 04:01:58;;;;;;;4.50;2.95;;;;;;;;;;10281379;28;20048;-85
2023/01/18 04:07:03;;;;;;;4.40;2.70;;;;;;;;;;10294103;28;20122;-84
2023/01/18 04:12:09;;;;;;;3.28;2.45;;;;;;;;;;10306474;28;20046;-86
2023/01/18 04:17:14;;;;;;;4.10;2.60;;;;;;;;;;10291628;28;20074;-84
2023/01/18 04:22:17;;;;;;;3.20;2.30;;;;;;;;;;10308585;28;20046;-83
2023/01/18 04:27:21;;;;;;;4.55;2.38;;;;;;;;;;10290964;28;20046;-83
2023/01/18 04:32:28;;;;;;;6.05;2.60;;;;;;;;;;10298012;28;20422;-82
2023/01/18 04:37:32;;;;;;;3.88;2.33;;;;;;;;;;10308081;28;20069;-83
2023/01/18 04:42:36;;;;;;;3.50;2.20;;;;;;;;;;10299837;28;20683;-84
2023/01/18 04:47:41;;;;;;;7.30;3.85;;;;;;;;;;10317706;28;20042;-84
2023/01/18 04:52:45;;;;;;;6.20;3.10;;;;;;;;;;10296657;28;20057;-82
2023/01/18 04:57:55;;;;;;;3.45;2.40;;;;;;;;;;10296271;28;20649;-85
2023/01/18 05:03:03;;;;;;;3.33;2.38;;;;;;;;;;10300303;28;20043;-84
2023/01/18 05:08:07;;;;;;;4.43;2.42;;;;;;;;;;10305981;28;20043;-84
2023/01/18 05:13:13;;;;;;;2.70;2.33;;;;;;;;;;10310862;28;20082;-83
2023/01/18 05:18:17;;;;;;;3.47;2.28;;;;;;;;;;10281065;28;20077;-82
2023/01/18 05:23:21;;;;;;;3.88;2.35;;;;;;;;;;10310008;28;20058;-84
2023/01/18 05:28:30;;;;;;;2.75;2.25;;;;;;;;;;10295116;28;20050;-87
2023/01/18 05:33:35;;;;;;;5.30;2.60;;;;;;;;;;10283482;28;20049;-85
2023/01/18 05:38:38;;;;;;;2.63;2.10;;;;;;;;;;10291722;28;20108;-89
2023/01/18 05:43:42;;;;;;;2.55;2.05;;;;;;;;;;10299847;28;20592;-85
2023/01/18 05:48:46;;;;;;;2.58;2.05;;;;;;;;;;10286140;28;20073;-83
2023/01/18 05:53:50;;;;;;;3.90;2.03;;;;;;;;;;10287035;28;20053;-85
2023/01/18 05:58:54;;;;;;;5.30;2.60;;;;;;;;;;10310484;28;20758;-86
2023/01/18 06:03:58;;;;;;;5.63;3.17;;;;;;;;;;10288092;28;20133;-87
2023/01/18 06:09:02;;;;;;;6.60;3.80;;;;;;;;;;10297313;28;20060;-86
2023/01/18 06:14:06;;;;;;;4.38;3.15;;;;;;;;;;10305226;28;20105;-85
2023/01/18 06:19:10;;;;;;;4.50;2.60;;;;;;;;;;10314355;28;20509;-87
2023/01/18 06:24:14;;;;;;;5.63;2.45;;;;;;;;;;10309376;28;20708;-86
2023/01/18 06:29:18;;;;;;;5.55;3.03;;;;;;;;;;10308361;28;20206;-86
2023/01/18 06:34:23;;;;;;;6.32;3.40;;;;;;;;;;10311235;28;20042;-87
2023/01/18 06:39:26;;;;;;;6.50;3.67;;;;;;;;;;10316779;28;20520;-86
2023/01/18 06:44:30;;;;;;;6.88;3.97;;;;;;;;;;10314664;28;20434;-84
2023/01/18 06:49:35;;;;;;;5.40;3.75;;;;;;;;;;10291680;28;20066;-84
2023/01/18 06:54:39;;;;;;;5.43;3.42;;;;;;;;;;10292132;28;20462;-84
2023/01/18 06:59:42;;;;;;;4.95;3.28;;;;;;;;;;10307996;28;20046;-84
2023/01/18 07:04:47;;;;;;;4.32;2.80;;;;;;;;;;10295674;28;20073;-85
2023/01/18 07:09:50;;;;;;;5.05;3.28;;;;;;;;;;10297427;28;20407;-88
2023/01/18 07:14:54;;;;;;;5.47;3.08;;;;;;;;;;10304540;28;20137;-85
2023/01/18 07:19:59;;;;;;;4.38;3.05;;;;;;;;;;10297253;28;20129;-87
2023/01/18 07:25:02;;;;;;;4.97;2.70;;;;;;;;;;10312076;28;20074;-89
2023/01/18 07:30:11;;;;;;;7.15;3.08;;;;;;;;;;10303033;28;20081;-89
2023/01/18 07:35:20;;;;;;;7.88;4.80;;;;;;;;;;10285574;28;20053;-84
2023/01/18 07:40:24;;;;;;;9.38;4.60;;;;;;;;;;10279038;28;20108;-86
2023/01/18 07:45:28;;;;;;;9.85;5.15;;;;;;;;;;10299258;28;20514;-87
2023/01/18 07:50:33;;;;;;;10.60;5.40;;;;;;;;;;10328683;28;20391;-87
2023/01/18 07:55:40;;;;;;;8.82;5.07;;;;;;;;;;10287256;28;20077;-84
2023/01/18 08:00:44;;;;;;;8.05;4.68;;;;;;;;;;10288851;28;20046;-85
2023/01/18 08:05:52;;;;;;;8.55;4.78;;;;;;;;;;10298425;28;20057;-85
2023/01/18 08:10:56;;;;;;;9.30;5.53;;;;;;;;;;10293654;28;20061;-85
2023/01/18 08:16:01;;;;;;;7.45;4.30;;;;;;;;;;10291770;28;20263;-86
2023/01/18 08:21:09;;;;;;;7.95;4.72;;;;;;;;;;10313481;28;20073;-85
2023/01/18 08:26:14;;;;;;;6.88;4.30;;;;;;;;;;10298772;28;20287;-86
2023/01/18 08:31:23;;;;;;;7.85;3.95;;;;;;;;;;10293441;28;20046;-85
2023/01/18 08:36:28;;;;;;;7.95;4.18;;;;;;;;;;10300057;28;20612;-86
2023/01/18 08:41:39;;;;;;;7.40;4.97;;;;;;;;;;10311552;28;20170;-83
2023/01/18 08:46:55;;;;;;;9.30;4.75;;;;;;;;;;10297443;28;20042;-82
2023/01/18 08:52:08;;;;;;;12.45;4.90;;;;;;;;;;10305634;28;20046;-83
2023/01/18 08:57:12;;;;;;;8.60;4.68;;;;;;;;;;10296300;28;20437;-84
2023/01/18 09:02:16;;;;;;;10.07;4.90;;;;;;;;;;10281670;28;20061;-83
2023/01/18 09:07:21;;;;;;;8.02;4.32;;;;;;;;;;10280820;28;20038;-85
2023/01/18 09:12:24;;;;;;;8.05;4.55;;;;;;;;;;10288196;28;20050;-86
2023/01/18 09:17:28;;;;;;;7.10;4.25;;;;;;;;;;10305232;28;20046;-86
2023/01/18 09:22:33;;;;;;;10.43;5.72;;;;;;;;;;10288926;28;20050;-83
2023/01/18 09:27:36;;;;;;;7.13;4.35;;;;;;;;;;10311358;28;20038;-84
2023/01/18 09:32:40;;;;;;;10.30;4.88;;;;;;;;;;10298576;28;20129;-83
2023/01/18 09:37:48;;;;;;;8.02;5.00;;;;;;;;;;10286454;28;20061;-84
2023/01/18 09:42:52;;;;;;;8.60;4.90;;;;;;;;;;10308510;28;20050;-86
2023/01/18 09:48:02;;;;;;;13.60;7.30;;;;;;;;;;10311128;28;20046;-88
2023/01/18 09:53:18;;;;;;;15.35;8.23;;;;;;;;;;10304642;28;20466;-87
2023/01/18 09:58:42;;;;;;;11.43;6.30;;;;;;;;;;10308088;28;20080;-87
2023/01/18 10:03:52;;;;;;;9.82;4.85;;;;;;;;;;10306027;28;20048;-90
2023/01/18 10:09:01;;;;;;;7.65;4.57;;;;;;;;;;10309717;28;20043;-86
2023/01/18 10:14:14;;;;;;;11.32;5.57;;;;;;;;;;10311751;28;20046;-91
2023/01/18 10:19:22;;;;;;;10.73;5.45;;;;;;;;;;10307787;28;20047;-87
2023/01/18 10:24:38;;;;;;;11.88;6.50;;;;;;;;;;10314188;28;20038;-90
2023/01/18 10:29:55;;;;;;;11.88;6.10;;;;;;;;;;10311461;28;20046;-86
2023/01/18 10:35:02;;;;;;;16.52;9.68;;;;;;;;;;10306483;28;20043;-86
2023/01/18 10:40:11;;;;;;;11.35;7.07;;;;;;;;;;10316941;28;20078;-90
2023/01/18 10:45:18;;;;;;;9.45;5.40;;;;;;;;;;10320484;28;20061;-89
2023/01/18 10:50:33;;;;;;;27.00;14.32;;;;;;;;;;10304900;28;20046;-84
2023/01/18 10:55:38;;;;;;;21.77;10.82;;;;;;;;;;10304068;28;20051;-84
2023/01/18 11:00:42;;;;;;;23.08;13.10;;;;;;;;;;10296816;28;20065;-84
2023/01/18 11:05:50;;;;;;;16.50;8.27;;;;;;;;;;10299887;28;20397;-89
2023/01/18 11:11:08;;;;;;;9.43;5.88;;;;;;;;;;10310134;28;20046;-87
2023/01/18 11:16:16;;;;;;;12.20;6.20;;;;;;;;;;10307606;28;20550;-90
2023/01/18 11:21:20;;;;;;;10.57;6.15;;;;;;;;;;10319339;28;20050;-88
2023/01/18 11:26:27;;;;;;;11.68;6.05;;;;;;;;;;10306893;28;20224;-84
2023/01/18 11:31:42;;;;;;;15.00;7.47;;;;;;;;;;10297090;28;20048;-84
2023/01/18 11:36:48;;;;;;;13.13;7.03;;;;;;;;;;10298329;28;20569;-87
2023/01/18 11:42:17;;;;;;;25.40;13.25;;;;;;;;;;10308747;28;20042;-88
2023/01/18 11:47:56;;;;;;;12.95;7.13;;;;;;;;;;10322045;28;20046;-87
2023/01/18 11:53:45;;;;;;;16.05;8.25;;;;;;;;;;10287846;28;20491;-90
2023/01/18 11:59:14;;;;;;;19.58;10.38;;;;;;;;;;10320991;28;20085;-86
2023/01/18 12:04:39;;;;;;;12.23;6.85;;;;;;;;;;10279215;28;20085;-85
2023/01/18 12:09:56;;;;;;;6.40;3.72;;;;;;;;;;10288608;28;20054;-85
2023/01/18 12:15:34;;;;;;;11.70;6.40;;;;;;;;;;10298195;28;20256;-84
2023/01/18 12:20:54;;;;;;;12.18;6.63;;;;;;;;;;10306796;28;20050;-87
2023/01/18 12:26:37;;;;;;;13.93;8.15;;;;;;;;;;10304588;28;20404;-87
2023/01/18 12:32:11;;;;;;;13.70;7.28;;;;;;;;;;10310088;28;20611;-85
2023/01/18 12:37:36;;;;;;;10.32;6.18;;;;;;;;;;10298053;28;20097;-85
2023/01/18 12:42:54;;;;;;;12.18;5.30;;;;;;;;;;10305524;28;20129;-91
2023/01/18 12:48:12;;;;;;;9.32;5.75;;;;;;;;;;10309864;28;20065;-86
2023/01/18 12:53:20;;;;;;;8.05;4.80;;;;;;;;;;10294324;28;20389;-85
2023/01/18 12:58:26;;;;;;;7.32;4.03;;;;;;;;;;10282652;28;20316;-86
2023/01/18 13:03:39;;;;;;;15.13;6.97;;;;;;;;;;10318866;28;21281;-89
2023/01/18 13:08:51;;;;;;;9.20;5.07;;;;;;;;;;10326132;28;20105;-84
2023/01/18 13:14:17;;;;;;;8.90;5.07;;;;;;;;;;10328635;28;20529;-89
2023/01/18 13:19:28;;;;;;;8.00;4.60;;;;;;;;;;10308411;28;20137;-93
2023/01/18 13:24:47;;;;;;;12.57;6.82;;;;;;;;;;10319704;28;20046;-87
2023/01/18 13:29:53;;;;;;;7.97;5.43;;;;;;;;;;10312939;28;20457;-85
2023/01/18 13:35:04;;;;;;;8.43;4.22;;;;;;;;;;10308886;28;20062;-84
2023/01/18 13:40:31;;;;;;;7.38;3.47;;;;;;;;;;10296234;28;20613;-85
2023/01/18 13:46:05;;;;;;;10.38;5.90;;;;;;;;;;10303404;28;20046;-85
2023/01/18 13:51:12;;;;;;;13.20;5.68;;;;;;;;;;10319446;28;20053;-85
2023/01/18 13:56:24;;;;;;;9.77;5.05;;;;;;;;;;10309460;28;20514;-88
2023/01/18 14:01:31;;;;;;;;;;;;;;;;;;10312739;28;20105;-85
2023/01/18 14:06:38;;;;;;;6.60;3.92;;;;;;;;;;10276291;28;19922;-85
2023/01/18 14:11:49;;;;;;;9.18;4.93;;;;;;;;;;10287736;28;20049;-84
2023/01/18 14:17:06;;;;;;;6.78;4.30;;;;;;;;;;10298596;28;20041;-85
2023/01/18 14:22:26;;;;;;;5.90;3.28;;;;;;;;;;10314387;28;20121;-85
2023/01/18 14:27:39;;;;;;;6.05;3.45;;;;;;;;;;10311547;28;20034;-85
2023/01/18 14:32:54;;;;;;;6.20;3.17;;;;;;;;;;10316661;28;20042;-85
2023/01/18 14:38:17;;;;;;;6.35;3.63;;;;;;;;;;10304441;28;20416;-85
2023/01/18 14:43:26;;;;;;;5.88;3.00;;;;;;;;;;10321785;28;20598;-88
2023/01/18 14:48:41;;;;;;;7.40;3.17;;;;;;;;;;10339457;28;20510;-88
2023/01/18 14:53:56;;;;;;;4.43;2.85;;;;;;;;;;10329494;28;20151;-88
2023/01/18 14:59:18;;;;;;;7.00;2.45;;;;;;;;;;10314910;28;20050;-85
2023/01/18 15:04:26;;;;;;;2.72;2.00;;;;;;;;;;10314847;28;20046;-88
2023/01/18 15:09:36;;;;;;;3.60;2.08;;;;;;;;;;10331177;28;20042;-90
2023/01/18 15:14:47;;;;;;;3.85;2.28;;;;;;;;;;10319520;28;20054;-87
2023/01/18 15:19:58;;;;;;;3.15;2.35;;;;;;;;;;10338690;28;20506;-87
2023/01/18 15:25:17;;;;;;;8.63;3.78;;;;;;;;;;10330021;28;20088;-85
2023/01/18 15:30:24;;;;;;;6.85;3.28;;;;;;;;;;10303711;28;20046;-85
2023/01/18 15:35:32;;;;;;;3.35;2.28;;;;;;;;;;10300786;28;20510;-85
2023/01/18 15:40:42;;;;;;;2.70;1.70;;;;;;;;;;10299363;28;20462;-85
2023/01/18 15:45:50;;;;;;;3.90;2.10;;;;;;;;;;10297829;28;20038;-84
2023/01/18 15:50:55;;;;;;;2.85;1.80;;;;;;;;;;10297516;28;20034;-86
2023/01/18 15:56:03;;;;;;;2.35;1.67;;;;;;;;;;10323345;28;20046;-87
2023/01/18 16:01:15;;;;;;;2.55;1.73;;;;;;;;;;10303239;28;20469;-91
2023/01/18 16:06:31;;;;;;;2.85;1.90;;;;;;;;;;10308429;28;20035;-90
2023/01/18 16:11:45;;;;;;;2.63;1.92;;;;;;;;;;10314638;28;20050;-86
2023/01/18 16:16:49;;;;;;;2.95;2.17;;;;;;;;;;10305177;28;20046;-87
2023/01/18 16:21:57;;;;;;;9.57;2.58;;;;;;;;;;10313843;28;20320;-88
2023/01/18 16:27:11;;;;;;;4.13;2.30;;;;;;;;;;10302026;28;20121;-86
2023/01/18 16:32:32;;;;;;;4.82;2.83;;;;;;;;;;10307523;28;20076;-86
2023/01/18 16:37:37;;;;;;;4.18;2.70;;;;;;;;;;10301027;28;20265;-85
2023/01/18 16:42:58;;;;;;;4.78;2.50;;;;;;;;;;10319828;28;20395;-85
2023/01/18 16:48:02;;;;;;;3.88;2.35;;;;;;;;;;10332196;28;20054;-85
2023/01/18 16:53:05;;;;;;;4.72;2.50;;;;;;;;;;10321781;28;20050;-86
2023/01/18 16:58:12;;;;;;;3.63;2.33;;;;;;;;;;10322445;28;20125;-87
2023/01/18 17:03:18;;;;;;;3.60;2.47;;;;;;;;;;10307035;28;20058;-85
2023/01/18 17:08:23;;;;;;;4.47;2.40;;;;;;;;;;10308901;28;20070;-86
2023/01/18 17:13:28;;;;;;;2.53;1.85;;;;;;;;;;10309215;28;20502;-86
2023/01/18 17:18:31;;;;;;;5.18;2.38;;;;;;;;;;10321088;28;20035;-84
2023/01/18 17:23:34;;;;;;;2.88;2.03;;;;;;;;;;10301220;28;20054;-86
2023/01/18 17:28:39;;;;;;;3.38;2.10;;;;;;;;;;10303278;28;20366;-84
2023/01/18 17:33:43;;;;;;;4.15;2.60;;;;;;;;;;10292599;28;20048;-84
2023/01/18 17:38:53;;;;;;;7.22;3.80;;;;;;;;;;10300872;28;20046;-83
2023/01/18 17:43:58;;;;;;;13.95;6.75;;;;;;;;;;10296226;28;20047;-82
2023/01/18 17:49:03;;;;;;;13.18;6.35;;;;;;;;;;10304473;28;20126;-82
2023/01/18 17:54:07;;;;;;;12.00;6.20;;;;;;;;;;10294781;28;20073;-83
2023/01/18 17:59:20;;;;;;;17.50;8.13;;;;;;;;;;10284268;28;20802;-83
2023/01/18 18:04:23;;;;;;;18.02;7.68;;;;;;;;;;10292625;28;20042;-85
2023/01/18 18:09:27;;;;;;;16.83;7.28;;;;;;;;;;10305700;28;20046;-82
2023/01/18 18:14:33;;;;;;;21.23;8.82;;;;;;;;;;10287722;28;20039;-83
2023/01/18 18:19:37;;;;;;;16.88;8.65;;;;;;;;;;10283909;28;20039;-83
2023/01/18 18:24:41;;;;;;;12.75;6.28;;;;;;;;;;10291281;28;20038;-82
2023/01/18 18:29:46;;;;;;;10.27;6.22;;;;;;;;;;10297940;28;20038;-83
2023/01/18 18:34:50;;;;;;;9.60;5.40;;;;;;;;;;10321917;28;20109;-85
2023/01/18 18:39:53;;;;;;;13.02;6.53;;;;;;;;;;10329202;28;20585;-86
2023/01/18 18:44:58;;;;;;;10.35;5.47;;;;;;;;;;10328773;28;20093;-85
2023/01/18 18:50:02;;;;;;;9.98;5.28;;;;;;;;;;10325859;28;20046;-85
2023/01/18 18:55:06;;;;;;;9.35;4.57;;;;;;;;;;10329573;28;20530;-84
2023/01/18 19:00:18;;;;;;;7.45;4.10;;;;;;;;;;10325394;28;20466;-84
2023/01/18 19:05:22;;;;;;;7.72;4.10;;;;;;;;;;10315036;28;20620;-83
2023/01/18 19:10:29;;;;;;;6.57;3.58;;;;;;;;;;10332174;28;20234;-84
2023/01/18 19:15:34;;;;;;;5.97;3.90;;;;;;;;;;10330098;28;20046;-82
2023/01/18 19:20:38;;;;;;;12.25;5.53;;;;;;;;;;10325396;28;20054;-83
2023/01/18 19:25:47;;;;;;;13.60;6.65;;;;;;;;;;10316490;28;20049;-85
2023/01/18 19:30:53;;;;;;;11.30;6.43;;;;;;;;;;10314496;28;20045;-83
2023/01/18 19:36:05;;;;;;;16.17;7.97;;;;;;;;;;10291669;28;20421;-83
2023/01/18 19:41:15;;;;;;;18.42;8.30;;;;;;;;;;10312521;28;20065;-83
2023/01/18 19:46:19;;;;;;;14.40;6.60;;;;;;;;;;10295373;28;20062;-83
2023/01/18 19:51:23;;;;;;;13.95;7.28;;;;;;;;;;10296844;28;20105;-83
2023/01/18 19:56:27;;;;;;;11.00;5.70;;;;;;;;;;10302768;28;20034;-83
2023/01/18 20:01:32;;;;;;;13.18;7.07;;;;;;;;;;10294077;28;20138;-82
2023/01/18 20:06:42;;;;;;;13.75;7.32;;;;;;;;;;10310668;28;20092;-85
2023/01/18 20:11:45;;;;;;;14.20;6.57;;;;;;;;;;10314517;28;20065;-86
2023/01/18 20:16:50;;;;;;;13.15;6.15;;;;;;;;;;10319548;28;20043;-85
2023/01/18 20:21:54;;;;;;;13.00;6.53;;;;;;;;;;10313311;28;20073;-84
2023/01/18 20:27:01;;;;;;;11.77;6.20;;;;;;;;;;10332235;28;20685;-84
2023/01/18 20:32:20;;;;;;;11.15;6.13;;;;;;;;;;10305777;28;20564;-85
2023/01/18 20:37:24;;;;;;;13.10;6.13;;;;;;;;;;10326835;28;20038;-85
2023/01/18 20:42:27;;;;;;;10.60;5.20;;;;;;;;;;10334868;28;20054;-85
2023/01/18 20:47:32;;;;;;;11.82;5.43;;;;;;;;;;10319500;28;20042;-84
2023/01/18 20:52:36;;;;;;;9.85;5.38;;;;;;;;;;10315782;28;20138;-85
2023/01/18 20:57:40;;;;;;;11.13;4.43;;;;;;;;;;10313999;28;20084;-86
2023/01/18 21:02:45;;;;;;;10.13;4.35;;;;;;;;;;10303449;28;20545;-85
2023/01/18 21:07:49;;;;;;;7.05;3.50;;;;;;;;;;10291346;28;20053;-84
2023/01/18 21:12:53;;;;;;;7.97;4.22;;;;;;;;;;10273809;28;20045;-84
2023/01/18 21:17:58;;;;;;;9.20;4.22;;;;;;;;;;10289959;28;20038;-83
2023/01/18 21:23:03;;;;;;;12.25;5.57;;;;;;;;;;10279218;28;20562;-84
2023/01/18 21:28:06;;;;;;;10.52;5.68;;;;;;;;;;10288639;28;20074;-83
2023/01/18 21:33:12;;;;;;;8.18;4.85;;;;;;;;;;10276113;28;20050;-83
2023/01/18 21:38:16;;;;;;;8.13;4.03;;;;;;;;;;10305791;28;20513;-86
2023/01/18 21:48:43;;;;;;;5.43;2.95;;;;;;;;;;10322925;28;20073;-85
2023/01/18 21:59:08;;;;;;;3.78;2.72;;;;;;;;;;10302671;28;20138;-83
2023/01/18 22:09:37;;;;;;;5.13;3.10;;;;;;;;;;10311503;28;20469;-85
2023/01/18 22:14:41;;;;;;;5.00;3.10;;;;;;;;;;10300530;28;20073;-85
2023/01/18 22:19:46;;;;;;;3.28;2.03;;;;;;;;;;10315140;28;20073;-86
2023/01/18 22:24:50;;;;;;;3.17;2.33;;;;;;;;;;10316985;23;20049;-80
2023/01/18 22:29:56;;;;;;;3.33;2.25;;;;;;;;;;10257588;28;20074;-81
2023/01/18 22:35:00;;;;;;;4.30;1.90;;;;;;;;;;10266112;28;20051;-81
2023/01/18 22:40:05;;;;;;;2.47;1.50;;;;;;;;;;10260588;28;20291;-81
2023/01/18 22:45:09;;;;;;;2.60;1.55;;;;;;;;;;10276454;28;20112;-81
2023/01/18 22:50:14;;;;;;;2.35;1.80;;;;;;;;;;10269270;28;20094;-81
2023/01/18 22:55:18;;;;;;;2.47;1.77;;;;;;;;;;10254278;28;20467;-81
2023/01/18 23:00:23;;;;;;;3.45;1.92;;;;;;;;;;10243607;28;20143;-80
2023/01/18 23:05:28;;;;;;;3.47;1.90;;;;;;;;;;10231978;28;20059;-80
2023/01/18 23:10:33;;;;;;;2.97;1.70;;;;;;;;;;10238955;28;20074;-80
2023/01/18 23:21:05;;;;;;;4.75;2.15;;;;;;;;;;10240645;28;20051;-80
2023/01/18 23:26:08;;;;;;;3.65;2.08;;;;;;;;;;10256781;28;20066;-81
2023/01/18 23:31:13;;;;;;;3.20;1.92;;;;;;;;;;10233436;28;20042;-80
2023/01/18 23:36:18;;;;;;;3.53;2.35;;;;;;;;;;10239100;28;20071;-80
2023/01/18 23:57:26;;;;;;;3.95;2.22;;;;;;;;;;10232771;28;20273;-81
